sensor_id;sensor_type;location;lat;lon;timestamp;pressure;altitude;pressure_sealevel;temperature;humidity
48624;BME280;34422;45.802;16.114;2022-08-01T00:02:15;100182.03;;;18.59;100.00
48624;BME280;34422;45.802;16.114;2022-08-01T00:04:42;100184.00;;;18.68;97.90
48624;BME280;34422;45.802;16.114;2022-08-01T00:07:09;100184.88;;;18.79;96.80
48624;BME280;34422;45.802;16.114;2022-08-01T00:09:36;100182.16;;;18.89;94.41
48624;BME280;34422;45.802;16.114;2022-08-01T00:12:03;100180.25;;;19.00;92.61
48624;BME280;34422;45.802;16.114;2022-08-01T00:14:31;100176.47;;;19.11;93.31
48624;BME280;34422;45.802;16.114;2022-08-01T00:16:58;100180.28;;;19.15;94.41
48624;BME280;34422;45.802;16.114;2022-08-01T00:19:25;100175.09;;;19.18;95.92
48624;BME280;34422;45.802;16.114;2022-08-01T00:21:51;100174.03;;;19.25;96.85
48624;BME280;34422;45.802;16.114;2022-08-01T00:24:20;100177.03;;;19.23;96.05
48624;BME280;34422;45.802;16.114;2022-08-01T00:26:46;100173.44;;;19.17;95.68
48624;BME280;34422;45.802;16.114;2022-08-01T00:29:13;100175.94;;;19.19;95.33
48624;BME280;34422;45.802;16.114;2022-08-01T00:31:40;100176.75;;;19.20;94.94
48624;BME280;34422;45.802;16.114;2022-08-01T00:34:08;100176.47;;;19.21;93.43
48624;BME280;34422;45.802;16.114;2022-08-01T00:36:34;100174.03;;;19.25;93.64
48624;BME280;34422;45.802;16.114;2022-08-01T00:39:02;100175.41;;;19.32;88.76
48624;BME280;34422;45.802;16.114;2022-08-01T00:41:29;100172.13;;;19.40;87.97
48624;BME280;34422;45.802;16.114;2022-08-01T00:43:55;100165.03;;;19.49;86.79
48624;BME280;34422;45.802;16.114;2022-08-01T00:46:22;100166.13;;;19.54;86.57
48624;BME280;34422;45.802;16.114;2022-08-01T00:48:49;100168.88;;;19.59;86.16
48624;BME280;34422;45.802;16.114;2022-08-01T00:51:17;100172.16;;;19.61;86.31
48624;BME280;34422;45.802;16.114;2022-08-01T00:53:43;100173.81;;;19.62;86.34
48624;BME280;34422;45.802;16.114;2022-08-01T00:56:10;100169.97;;;19.63;85.90
48624;BME280;34422;45.802;16.114;2022-08-01T00:58:37;100176.28;;;19.63;85.58
48624;BME280;34422;45.802;16.114;2022-08-01T01:01:04;100166.94;;;19.64;85.76
48624;BME280;34422;45.802;16.114;2022-08-01T01:03:31;100166.94;;;19.64;85.28
48624;BME280;34422;45.802;16.114;2022-08-01T01:14:45;100158.94;;;19.42;88.47
48624;BME280;34422;45.802;16.114;2022-08-01T01:17:20;100167.72;;;19.34;87.93
48624;BME280;34422;45.802;16.114;2022-08-01T01:19:51;100167.16;;;19.27;89.66
48624;BME280;34422;45.802;16.114;2022-08-01T01:22:41;100167.16;;;19.17;92.09
48624;BME280;34422;45.802;16.114;2022-08-01T01:31:28;100172.56;;;18.29;100.00
48624;BME280;34422;45.802;16.114;2022-08-01T01:33:58;100170.91;;;18.28;100.00
48624;BME280;34422;45.802;16.114;2022-08-01T01:36:27;100171.19;;;18.32;100.00
48624;BME280;34422;45.802;16.114;2022-08-01T01:38:55;100169.56;;;18.31;100.00
48624;BME280;34422;45.802;16.114;2022-08-01T01:41:23;100176.38;;;18.28;100.00
48624;BME280;34422;45.802;16.114;2022-08-01T01:43:51;100169.47;;;18.21;100.00
48624;BME280;34422;45.802;16.114;2022-08-01T01:46:23;100170.03;;;18.18;100.00
48624;BME280;34422;45.802;16.114;2022-08-01T01:48:51;100166.72;;;18.16;100.00
48624;BME280;34422;45.802;16.114;2022-08-01T01:51:21;100165.59;;;18.11;100.00
48624;BME280;34422;45.802;16.114;2022-08-01T01:53:49;100162.81;;;18.06;100.00
48624;BME280;34422;45.802;16.114;2022-08-01T01:56:18;100159.50;;;17.99;100.00
48624;BME280;34422;45.802;16.114;2022-08-01T01:58:50;100161.13;;;17.95;100.00
48624;BME280;34422;45.802;16.114;2022-08-01T02:01:18;100168.75;;;17.93;100.00
48624;BME280;34422;45.802;16.114;2022-08-01T02:03:46;100159.41;;;17.84;100.00
48624;BME280;34422;45.802;16.114;2022-08-01T02:06:15;100162.41;;;17.83;100.00
48624;BME280;34422;45.802;16.114;2022-08-01T02:08:42;100154.97;;;17.78;100.00
48624;BME280;34422;45.802;16.114;2022-08-01T02:11:10;100152.78;;;17.75;100.00
48624;BME280;34422;45.802;16.114;2022-08-01T02:13:59;100157.69;;;17.73;100.00
48624;BME280;34422;45.802;16.114;2022-08-01T02:16:31;100166.41;;;17.70;100.00
48624;BME280;34422;45.802;16.114;2022-08-01T02:19:00;100163.03;;;17.63;100.00
48624;BME280;34422;45.802;16.114;2022-08-01T02:21:38;100160.78;;;17.55;100.00
48624;BME280;34422;45.802;16.114;2022-08-01T02:26:57;100163.84;;;17.31;100.00
48624;BME280;34422;45.802;16.114;2022-08-01T02:29:32;100152.91;;;17.31;100.00
48624;BME280;34422;45.802;16.114;2022-08-01T02:32:02;100161.13;;;17.31;100.00
48624;BME280;34422;45.802;16.114;2022-08-01T02:34:29;100158.16;;;17.06;100.00
48624;BME280;34422;45.802;16.114;2022-08-01T02:37:00;100156.44;;;17.00;100.00
48624;BME280;34422;45.802;16.114;2022-08-01T02:39:29;100154.25;;;17.02;100.00
48624;BME280;34422;45.802;16.114;2022-08-01T02:42:02;100143.41;;;17.07;100.00
48624;BME280;34422;45.802;16.114;2022-08-01T02:44:35;100142.84;;;17.10;100.00
48624;BME280;34422;45.802;16.114;2022-08-01T02:47:03;100141.50;;;17.08;100.00
48624;BME280;34422;45.802;16.114;2022-08-01T02:49:35;100144.47;;;17.06;100.00
48624;BME280;34422;45.802;16.114;2022-08-01T02:52:06;100144.66;;;16.99;100.00
48624;BME280;34422;45.802;16.114;2022-08-01T02:54:36;100144.09;;;16.97;100.00
48624;BME280;34422;45.802;16.114;2022-08-01T02:57:04;100143.28;;;16.97;100.00
48624;BME280;34422;45.802;16.114;2022-08-01T02:59:33;100145.44;;;16.95;100.00
48624;BME280;34422;45.802;16.114;2022-08-01T03:02:01;100150.91;;;16.95;100.00
48624;BME280;34422;45.802;16.114;2022-08-01T03:04:33;100145.13;;;16.91;100.00
48624;BME280;34422;45.802;16.114;2022-08-01T03:07:03;100155.50;;;16.89;100.00
48624;BME280;34422;45.802;16.114;2022-08-01T03:09:36;100147.56;;;16.88;100.00
48624;BME280;34422;45.802;16.114;2022-08-01T03:12:06;100153.84;;;16.88;100.00
48624;BME280;34422;45.802;16.114;2022-08-01T03:14:36;100155.75;;;16.88;100.00
48624;BME280;34422;45.802;16.114;2022-08-01T03:17:05;100157.09;;;16.85;100.00
48624;BME280;34422;45.802;16.114;2022-08-01T03:19:33;100158.16;;;16.84;100.00
48624;BME280;34422;45.802;16.114;2022-08-01T03:22:01;100152.41;;;16.81;100.00
48624;BME280;34422;45.802;16.114;2022-08-01T03:24:37;100149.03;;;16.74;100.00
48624;BME280;34422;45.802;16.114;2022-08-01T03:27:05;100146.81;;;16.70;100.00
48624;BME280;34422;45.802;16.114;2022-08-01T03:29:34;100154.50;;;16.74;100.00
48624;BME280;34422;45.802;16.114;2022-08-01T03:32:01;100158.31;;;16.73;100.00
48624;BME280;34422;45.802;16.114;2022-08-01T03:34:29;100166.75;;;16.71;100.00
48624;BME280;34422;45.802;16.114;2022-08-01T03:37:02;100159.38;;;16.72;100.00
48624;BME280;34422;45.802;16.114;2022-08-01T03:39:55;100168.16;;;16.74;100.00
48624;BME280;34422;45.802;16.114;2022-08-01T03:42:26;100164.09;;;16.76;100.00
48624;BME280;34422;45.802;16.114;2022-08-01T03:44:59;100161.13;;;16.78;100.00
48624;BME280;34422;45.802;16.114;2022-08-01T03:47:34;100160.31;;;16.82;100.00
48624;BME280;34422;45.802;16.114;2022-08-01T03:50:03;100165.03;;;16.87;100.00
48624;BME280;34422;45.802;16.114;2022-08-01T03:52:32;100163.94;;;16.88;100.00
48624;BME280;34422;45.802;16.114;2022-08-01T03:55:03;100166.19;;;16.91;100.00
48624;BME280;34422;45.802;16.114;2022-08-01T03:57:31;100168.13;;;16.95;100.00
48624;BME280;34422;45.802;16.114;2022-08-01T04:00:00;100168.94;;;16.96;100.00
48624;BME280;34422;45.802;16.114;2022-08-01T04:02:28;100159.56;;;16.87;100.00
48624;BME280;34422;45.802;16.114;2022-08-01T04:04:55;100160.03;;;16.79;100.00
48624;BME280;34422;45.802;16.114;2022-08-01T04:07:24;100162.50;;;16.80;100.00
48624;BME280;34422;45.802;16.114;2022-08-01T04:09:51;100152.41;;;16.81;100.00
48624;BME280;34422;45.802;16.114;2022-08-01T04:12:18;100164.53;;;16.90;100.00
48624;BME280;34422;45.802;16.114;2022-08-01T04:14:45;100165.13;;;16.97;100.00
48624;BME280;34422;45.802;16.114;2022-08-01T04:17:12;100167.63;;;16.98;100.00
48624;BME280;34422;45.802;16.114;2022-08-01T04:19:39;100160.06;;;17.05;100.00
48624;BME280;34422;45.802;16.114;2022-08-01T04:22:08;100158.75;;;17.13;100.00
48624;BME280;34422;45.802;16.114;2022-08-01T04:24:42;100161.03;;;17.21;100.00
48624;BME280;34422;45.802;16.114;2022-08-01T04:27:17;100159.38;;;17.20;100.00
48624;BME280;34422;45.802;16.114;2022-08-01T04:29:46;100156.69;;;17.25;100.00
48624;BME280;34422;45.802;16.114;2022-08-01T04:32:14;100155.34;;;17.28;100.00
48624;BME280;34422;45.802;16.114;2022-08-01T04:34:43;100161.16;;;17.36;100.00
48624;BME280;34422;45.802;16.114;2022-08-01T04:37:12;100161.84;;;17.49;100.00
48624;BME280;34422;45.802;16.114;2022-08-01T04:39:41;100170.94;;;17.59;100.00
48624;BME280;34422;45.802;16.114;2022-08-01T04:42:09;100174.00;;;17.63;100.00
48624;BME280;34422;45.802;16.114;2022-08-01T04:44:37;100166.25;;;17.55;100.00
48624;BME280;34422;45.802;16.114;2022-08-01T04:47:05;100170.56;;;17.51;100.00
48624;BME280;34422;45.802;16.114;2022-08-01T04:49:34;100168.41;;;17.53;100.00
48624;BME280;34422;45.802;16.114;2022-08-01T04:52:01;100167.84;;;17.51;100.00
48624;BME280;34422;45.802;16.114;2022-08-01T04:54:33;100166.31;;;17.60;100.00
48624;BME280;34422;45.802;16.114;2022-08-01T04:57:06;100172.69;;;17.70;100.00
48624;BME280;34422;45.802;16.114;2022-08-01T04:59:36;100172.47;;;17.77;100.00
48624;BME280;34422;45.802;16.114;2022-08-01T05:04:37;100176.94;;;17.88;100.00
48624;BME280;34422;45.802;16.114;2022-08-01T05:07:05;100175.16;;;18.04;100.00
48624;BME280;34422;45.802;16.114;2022-08-01T05:09:33;100176.56;;;18.11;100.00
48624;BME280;34422;45.802;16.114;2022-08-01T05:12:00;100177.13;;;18.19;100.00
48624;BME280;34422;45.802;16.114;2022-08-01T05:14:28;100176.13;;;18.35;100.00
48624;BME280;34422;45.802;16.114;2022-08-01T05:17:00;100176.19;;;18.40;100.00
48624;BME280;34422;45.802;16.114;2022-08-01T05:19:30;100166.88;;;18.46;100.00
48624;BME280;34422;45.802;16.114;2022-08-01T05:21:59;100173.66;;;18.91;100.00
48624;BME280;34422;45.802;16.114;2022-08-01T05:24:37;100172.66;;;19.22;100.00
48624;BME280;34422;45.802;16.114;2022-08-01T05:27:05;100171.03;;;19.82;100.00
48624;BME280;34422;45.802;16.114;2022-08-01T05:29:33;100171.31;;;20.01;100.00
48624;BME280;34422;45.802;16.114;2022-08-01T05:32:00;100165.69;;;20.62;100.00
48624;BME280;34422;45.802;16.114;2022-08-01T05:34:27;100171.63;;;20.79;100.00
48624;BME280;34422;45.802;16.114;2022-08-01T05:36:54;100168.22;;;21.02;100.00
48624;BME280;34422;45.802;16.114;2022-08-01T05:39:21;100170.16;;;21.80;99.06
48624;BME280;34422;45.802;16.114;2022-08-01T05:41:48;100176.97;;;21.58;99.20
48624;BME280;34422;45.802;16.114;2022-08-01T05:44:15;100178.63;;;21.10;100.00
48624;BME280;34422;45.802;16.114;2022-08-01T05:46:41;100177.56;;;21.50;88.75
48624;BME280;34422;45.802;16.114;2022-08-01T05:49:08;100183.06;;;21.50;85.85
48624;BME280;34422;45.802;16.114;2022-08-01T05:51:35;100176.75;;;21.84;84.12
48624;BME280;34422;45.802;16.114;2022-08-01T05:54:02;100180.94;;;22.10;88.83
48624;BME280;34422;45.802;16.114;2022-08-01T05:56:29;100186.34;;;22.20;94.67
48624;BME280;34422;45.802;16.114;2022-08-01T05:58:56;100182.09;;;22.04;93.40
48624;BME280;34422;45.802;16.114;2022-08-01T06:01:23;100186.38;;;21.47;99.46
48624;BME280;34422;45.802;16.114;2022-08-01T06:03:49;100183.31;;;21.10;98.47
48624;BME280;34422;45.802;16.114;2022-08-01T06:06:16;100179.44;;;21.11;100.00
48624;BME280;34422;45.802;16.114;2022-08-01T06:08:43;100175.00;;;21.25;100.00
48624;BME280;34422;45.802;16.114;2022-08-01T06:11:10;100183.69;;;21.42;97.71
48624;BME280;34422;45.802;16.114;2022-08-01T06:13:36;100181.16;;;21.46;97.95
48624;BME280;34422;45.802;16.114;2022-08-01T06:16:03;100182.16;;;21.21;98.76
48624;BME280;34422;45.802;16.114;2022-08-01T06:18:30;100191.31;;;21.55;96.19
48624;BME280;34422;45.802;16.114;2022-08-01T06:20:59;100195.75;;;21.46;94.47
48624;BME280;34422;45.802;16.114;2022-08-01T06:23:26;100189.75;;;22.12;91.24
48624;BME280;34422;45.802;16.114;2022-08-01T06:25:53;100190.34;;;22.57;93.41
48624;BME280;34422;45.802;16.114;2022-08-01T06:28:21;100197.72;;;22.61;91.04
48624;BME280;34422;45.802;16.114;2022-08-01T06:30:48;100199.13;;;23.07;89.88
48624;BME280;34422;45.802;16.114;2022-08-01T06:33:15;100191.06;;;23.48;85.74
48624;BME280;34422;45.802;16.114;2022-08-01T06:35:41;100196.38;;;23.95;85.75
48624;BME280;34422;45.802;16.114;2022-08-01T06:38:08;100186.97;;;24.29;82.86
48624;BME280;34422;45.802;16.114;2022-08-01T06:40:35;100198.66;;;24.39;81.83
48624;BME280;34422;45.802;16.114;2022-08-01T06:43:02;100189.84;;;24.37;83.00
48624;BME280;34422;45.802;16.114;2022-08-01T06:45:28;100185.56;;;24.59;82.62
48624;BME280;34422;45.802;16.114;2022-08-01T06:47:55;100190.50;;;25.25;80.87
48624;BME280;34422;45.802;16.114;2022-08-01T06:50:22;100192.94;;;25.40;80.31
48624;BME280;34422;45.802;16.114;2022-08-01T06:52:49;100202.34;;;25.75;78.71
48624;BME280;34422;45.802;16.114;2022-08-01T06:55:15;100205.50;;;26.05;75.28
48624;BME280;34422;45.802;16.114;2022-08-01T06:57:49;100206.91;;;25.94;73.17
48624;BME280;34422;45.802;16.114;2022-08-01T07:00:18;100212.63;;;26.50;71.99
48624;BME280;34422;45.802;16.114;2022-08-01T07:02:48;100201.28;;;26.38;69.95
48624;BME280;34422;45.802;16.114;2022-08-01T07:05:15;100208.56;;;26.57;66.60
48624;BME280;34422;45.802;16.114;2022-08-01T07:07:42;100205.44;;;26.49;68.67
48624;BME280;34422;45.802;16.114;2022-08-01T07:10:09;100202.91;;;26.79;63.21
48624;BME280;34422;45.802;16.114;2022-08-01T07:12:36;100200.94;;;27.79;60.41
48624;BME280;34422;45.802;16.114;2022-08-01T07:15:05;100197.31;;;27.10;62.62
48624;BME280;34422;45.802;16.114;2022-08-01T07:17:32;100197.28;;;28.05;60.29
48624;BME280;34422;45.802;16.114;2022-08-01T07:19:59;100200.69;;;28.36;58.95
48624;BME280;34422;45.802;16.114;2022-08-01T07:22:25;100188.81;;;28.56;59.20
48624;BME280;34422;45.802;16.114;2022-08-01T07:24:52;100191.09;;;29.63;55.76
48624;BME280;34422;45.802;16.114;2022-08-01T07:27:19;100185.44;;;29.72;53.67
48624;BME280;34422;45.802;16.114;2022-08-01T07:29:46;100194.91;;;28.88;55.62
48624;BME280;34422;45.802;16.114;2022-08-01T07:32:12;100182.34;;;28.73;57.48
48624;BME280;34422;45.802;16.114;2022-08-01T07:34:39;100180.34;;;29.74;57.48
48624;BME280;34422;45.802;16.114;2022-08-01T07:37:06;100176.97;;;30.01;53.55
48624;BME280;34422;45.802;16.114;2022-08-01T07:39:33;100182.50;;;31.07;50.16
48624;BME280;34422;45.802;16.114;2022-08-01T07:41:59;100174.19;;;30.14;53.35
48624;BME280;34422;45.802;16.114;2022-08-01T07:44:26;100180.78;;;31.15;50.90
48624;BME280;34422;45.802;16.114;2022-08-01T07:46:53;100182.41;;;30.92;51.30
48624;BME280;34422;45.802;16.114;2022-08-01T07:49:21;100181.69;;;31.19;49.24
48624;BME280;34422;45.802;16.114;2022-08-01T07:51:48;100177.31;;;30.69;50.22
48624;BME280;34422;45.802;16.114;2022-08-01T07:54:15;100183.81;;;30.86;50.31
48624;BME280;34422;45.802;16.114;2022-08-01T07:56:41;100181.22;;;31.05;45.52
48624;BME280;34422;45.802;16.114;2022-08-01T07:59:08;100176.88;;;31.72;46.10
48624;BME280;34422;45.802;16.114;2022-08-01T08:01:35;100184.19;;;31.49;45.45
48624;BME280;34422;45.802;16.114;2022-08-01T08:04:02;100179.53;;;31.81;43.69
48624;BME280;34422;45.802;16.114;2022-08-01T08:06:29;100177.88;;;32.07;40.62
48624;BME280;34422;45.802;16.114;2022-08-01T08:08:55;100184.94;;;32.96;39.51
48624;BME280;34422;45.802;16.114;2022-08-01T08:11:22;100180.66;;;32.51;40.95
48624;BME280;34422;45.802;16.114;2022-08-01T08:13:49;100176.19;;;32.97;39.71
48624;BME280;34422;45.802;16.114;2022-08-01T08:16:16;100181.38;;;33.14;38.63
48624;BME280;34422;45.802;16.114;2022-08-01T08:18:42;100178.34;;;33.04;37.14
48624;BME280;34422;45.802;16.114;2022-08-01T08:21:09;100184.44;;;33.25;36.80
48624;BME280;34422;45.802;16.114;2022-08-01T08:23:36;100185.06;;;33.53;36.59
48624;BME280;34422;45.802;16.114;2022-08-01T08:26:21;100187.88;;;33.53;33.04
48624;BME280;34422;45.802;16.114;2022-08-01T08:28:50;100186.91;;;33.11;32.42
48624;BME280;34422;45.802;16.114;2022-08-01T08:31:16;100179.75;;;33.48;30.53
48624;BME280;34422;45.802;16.114;2022-08-01T08:33:43;100188.44;;;33.24;31.36
48624;BME280;34422;45.802;16.114;2022-08-01T08:36:10;100183.16;;;32.88;31.25
48624;BME280;34422;45.802;16.114;2022-08-01T08:38:37;100184.72;;;33.20;32.68
48624;BME280;34422;45.802;16.114;2022-08-01T08:41:04;100184.69;;;33.01;32.29
48624;BME280;34422;45.802;16.114;2022-08-01T08:43:31;100186.59;;;31.22;33.23
48624;BME280;34422;45.802;16.114;2022-08-01T08:46:00;100194.16;;;31.62;33.49
48624;BME280;34422;45.802;16.114;2022-08-01T08:48:28;100186.44;;;31.43;35.38
48624;BME280;34422;45.802;16.114;2022-08-01T08:50:55;100193.78;;;31.35;33.54
48624;BME280;34422;45.802;16.114;2022-08-01T08:53:24;100201.59;;;31.18;33.98
48624;BME280;34422;45.802;16.114;2022-08-01T08:55:51;100201.03;;;31.00;34.22
48624;BME280;34422;45.802;16.114;2022-08-01T08:58:19;100206.59;;;31.76;34.84
48624;BME280;34422;45.802;16.114;2022-08-01T09:00:47;100205.06;;;32.07;33.40
48624;BME280;34422;45.802;16.114;2022-08-01T09:03:14;100207.75;;;31.35;34.60
48624;BME280;34422;45.802;16.114;2022-08-01T09:05:41;100210.00;;;30.81;35.99
48624;BME280;34422;45.802;16.114;2022-08-01T09:08:08;100206.75;;;30.55;36.27
48624;BME280;34422;45.802;16.114;2022-08-01T09:10:35;100210.44;;;30.47;34.70
48624;BME280;34422;45.802;16.114;2022-08-01T09:13:10;100206.22;;;30.40;35.35
48624;BME280;34422;45.802;16.114;2022-08-01T09:15:47;100205.25;;;30.57;35.87
48624;BME280;34422;45.802;16.114;2022-08-01T09:18:37;100203.44;;;30.53;36.08
48624;BME280;34422;45.802;16.114;2022-08-01T09:21:09;100204.72;;;30.43;37.19
48624;BME280;34422;45.802;16.114;2022-08-01T09:23:38;100205.88;;;30.30;37.01
48624;BME280;34422;45.802;16.114;2022-08-01T09:26:06;100199.09;;;30.19;37.78
48624;BME280;34422;45.802;16.114;2022-08-01T09:28:33;100193.44;;;30.39;36.02
48624;BME280;34422;45.802;16.114;2022-08-01T09:31:09;100182.84;;;30.33;37.96
48624;BME280;34422;45.802;16.114;2022-08-01T09:33:55;100174.00;;;30.31;38.23
48624;BME280;34422;45.802;16.114;2022-08-01T09:36:24;100173.16;;;29.85;37.96
48624;BME280;34422;45.802;16.114;2022-08-01T09:38:53;100171.16;;;29.74;39.55
48624;BME280;34422;45.802;16.114;2022-08-01T09:41:30;100174.84;;;29.45;39.53
48624;BME280;34422;45.802;16.114;2022-08-01T09:44:00;100174.13;;;29.27;39.04
48624;BME280;34422;45.802;16.114;2022-08-01T09:46:27;100171.13;;;29.11;40.40
48624;BME280;34422;45.802;16.114;2022-08-01T09:51:36;100175.22;;;28.93;39.81
48624;BME280;34422;45.802;16.114;2022-08-01T09:54:05;100175.22;;;28.93;39.72
48624;BME280;34422;45.802;16.114;2022-08-01T09:56:40;100160.00;;;28.90;39.96
48624;BME280;34422;45.802;16.114;2022-08-01T09:59:12;100164.88;;;28.93;38.61
48624;BME280;34422;45.802;16.114;2022-08-01T10:01:49;100165.72;;;28.94;40.40
48624;BME280;34422;45.802;16.114;2022-08-01T10:04:18;100172.47;;;29.34;38.54
48624;BME280;34422;45.802;16.114;2022-08-01T10:06:47;100168.47;;;29.65;39.98
48624;BME280;34422;45.802;16.114;2022-08-01T10:09:30;100165.72;;;29.77;39.74
48624;BME280;34422;45.802;16.114;2022-08-01T10:12:00;100170.00;;;30.08;41.07
48624;BME280;34422;45.802;16.114;2022-08-01T10:14:28;100168.06;;;30.20;37.52
48624;BME280;34422;45.802;16.114;2022-08-01T10:16:57;100174.88;;;30.56;38.41
48624;BME280;34422;45.802;16.114;2022-08-01T10:19:27;100171.44;;;30.26;36.97
48624;BME280;34422;45.802;16.114;2022-08-01T10:21:55;100169.13;;;30.40;38.52
48624;BME280;34422;45.802;16.114;2022-08-01T10:24:23;100167.31;;;30.56;38.87
48624;BME280;34422;45.802;16.114;2022-08-01T10:26:59;100168.19;;;31.09;38.42
48624;BME280;34422;45.802;16.114;2022-08-01T10:29:43;100170.25;;;31.36;36.96
48624;BME280;34422;45.802;16.114;2022-08-01T10:32:12;100163.13;;;31.79;34.65
48624;BME280;34422;45.802;16.114;2022-08-01T10:34:39;100167.81;;;32.19;32.10
48624;BME280;34422;45.802;16.114;2022-08-01T10:37:06;100161.94;;;32.39;32.59
48624;BME280;34422;45.802;16.114;2022-08-01T10:39:34;100155.72;;;32.46;34.39
48624;BME280;34422;45.802;16.114;2022-08-01T10:42:04;100156.53;;;32.46;33.02
48624;BME280;34422;45.802;16.114;2022-08-01T10:44:32;100149.72;;;32.63;34.62
48624;BME280;34422;45.802;16.114;2022-08-01T10:47:10;100157.03;;;32.68;33.40
48624;BME280;34422;45.802;16.114;2022-08-01T10:49:45;100154.03;;;32.13;31.19
48624;BME280;34422;45.802;16.114;2022-08-01T10:52:15;100154.03;;;32.13;31.81
48624;BME280;34422;45.802;16.114;2022-08-01T10:54:42;100151.59;;;32.12;30.93
48624;BME280;34422;45.802;16.114;2022-08-01T10:57:09;100148.00;;;32.11;31.36
48624;BME280;34422;45.802;16.114;2022-08-01T10:59:48;100148.81;;;31.96;34.40
48624;BME280;34422;45.802;16.114;2022-08-01T11:02:26;100137.47;;;32.21;32.51
48624;BME280;34422;45.802;16.114;2022-08-01T11:04:58;100142.34;;;31.80;33.48
48624;BME280;34422;45.802;16.114;2022-08-01T11:12:45;100138.72;;;31.24;35.32
48624;BME280;34422;45.802;16.114;2022-08-01T11:17:43;100127.66;;;31.03;33.91
48624;BME280;34422;45.802;16.114;2022-08-01T11:20:19;100125.13;;;31.10;33.29
48624;BME280;34422;45.802;16.114;2022-08-01T11:38:49;100105.25;;;30.51;36.53
48624;BME280;34422;45.802;16.114;2022-08-01T11:41:31;100101.91;;;30.69;35.94
48624;BME280;34422;45.802;16.114;2022-08-01T11:44:13;100100.75;;;30.58;35.34
48624;BME280;34422;45.802;16.114;2022-08-01T11:49:33;100102.72;;;30.70;35.61
48624;BME280;34422;45.802;16.114;2022-08-01T11:52:09;100093.81;;;30.92;35.21
48624;BME280;34422;45.802;16.114;2022-08-01T11:57:24;100083.25;;;30.86;36.53
48624;BME280;34422;45.802;16.114;2022-08-01T11:59:56;100082.94;;;31.03;34.55
48624;BME280;34422;45.802;16.114;2022-08-01T12:04:57;100076.47;;;30.99;33.95
48624;BME280;34422;45.802;16.114;2022-08-01T12:07:26;100069.25;;;30.98;33.91
48624;BME280;34422;45.802;16.114;2022-08-01T12:10:00;100065.34;;;31.27;34.69
48624;BME280;34422;45.802;16.114;2022-08-01T12:12:28;100063.81;;;31.29;33.69
48624;BME280;34422;45.802;16.114;2022-08-01T12:14:58;100065.94;;;31.08;33.88
48624;BME280;34422;45.802;16.114;2022-08-01T12:17:35;100055.84;;;31.31;33.85
48624;BME280;34422;45.802;16.114;2022-08-01T12:20:07;100064.19;;;31.43;34.15
48624;BME280;34422;45.802;16.114;2022-08-01T12:22:35;100062.38;;;31.79;33.92
48624;BME280;34422;45.802;16.114;2022-08-01T12:25:12;100061.03;;;32.52;34.14
48624;BME280;34422;45.802;16.114;2022-08-01T12:27:42;100050.66;;;32.71;33.88
48624;BME280;34422;45.802;16.114;2022-08-01T12:30:14;100054.31;;;32.56;33.65
48624;BME280;34422;45.802;16.114;2022-08-01T12:32:44;100052.84;;;32.62;33.58
48624;BME280;34422;45.802;16.114;2022-08-01T12:35:14;100053.81;;;32.35;33.23
48624;BME280;34422;45.802;16.114;2022-08-01T12:37:45;100039.91;;;32.38;34.49
48624;BME280;34422;45.802;16.114;2022-08-01T12:40:28;100043.03;;;32.53;33.24
48624;BME280;34422;45.802;16.114;2022-08-01T12:42:56;100044.97;;;32.33;33.78
48624;BME280;34422;45.802;16.114;2022-08-01T12:45:27;100046.47;;;32.46;32.96
48624;BME280;34422;45.802;16.114;2022-08-01T12:47:54;100037.94;;;32.39;31.90
48624;BME280;34422;45.802;16.114;2022-08-01T12:50:26;100036.69;;;32.21;33.40
48624;BME280;34422;45.802;16.114;2022-08-01T12:52:54;100022.16;;;32.50;34.63
48624;BME280;34422;45.802;16.114;2022-08-01T12:55:23;100022.81;;;32.43;32.97
48624;BME280;34422;45.802;16.114;2022-08-01T12:58:10;100018.50;;;32.30;31.90
48624;BME280;34422;45.802;16.114;2022-08-01T13:00:38;100015.19;;;32.25;32.10
48624;BME280;34422;45.802;16.114;2022-08-01T13:03:09;100003.44;;;32.03;32.33
48624;BME280;34422;45.802;16.114;2022-08-01T13:08:20;100009.66;;;32.28;31.68
48624;BME280;34422;45.802;16.114;2022-08-01T13:10:48;100000.03;;;32.45;32.11
48624;BME280;34422;45.802;16.114;2022-08-01T13:13:17;100008.22;;;32.34;31.83
48624;BME280;34422;45.802;16.114;2022-08-01T13:15:44;100002.88;;;32.13;31.57
48624;BME280;34422;45.802;16.114;2022-08-01T13:18:26;100004.72;;;32.22;31.30
48624;BME280;34422;45.802;16.114;2022-08-01T13:21:13;100012.66;;;32.20;31.47
48624;BME280;34422;45.802;16.114;2022-08-01T13:23:42;100006.34;;;32.23;31.50
48624;BME280;34422;45.802;16.114;2022-08-01T13:29:06;99987.69;;;32.14;31.80
48624;BME280;34422;45.802;16.114;2022-08-01T13:31:35;99992.59;;;31.86;35.17
48624;BME280;34422;45.802;16.114;2022-08-01T13:34:02;99992.44;;;32.10;35.83
48624;BME280;34422;45.802;16.114;2022-08-01T13:36:30;99994.94;;;32.15;32.80
48624;BME280;34422;45.802;16.114;2022-08-01T13:38:58;99986.00;;;32.10;34.72
48624;BME280;34422;45.802;16.114;2022-08-01T13:41:44;99984.03;;;31.95;32.39
48624;BME280;34422;45.802;16.114;2022-08-01T13:44:11;99980.66;;;31.58;32.96
48624;BME280;34422;45.802;16.114;2022-08-01T13:46:39;99991.91;;;31.30;34.46
48624;BME280;34422;45.802;16.114;2022-08-01T13:49:08;99984.53;;;31.37;33.11
48624;BME280;34422;45.802;16.114;2022-08-01T13:51:36;99996.03;;;31.64;32.50